createdAt,value
2023-04-04T00:02:08.436Z,60.60
2023-04-04T00:04:48.613Z,60.60
2023-04-04T00:07:26.652Z,60.70
2023-04-04T00:09:59.688Z,60.80
2023-04-04T00:12:34.886Z,60.90
2023-04-04T00:15:06.645Z,61.00
2023-04-04T00:17:36.846Z,61.00
2023-04-04T00:20:10.357Z,61.00
2023-04-04T00:22:44.945Z,61.10
2023-04-04T00:25:19.297Z,61.10
2023-04-04T00:27:54.852Z,61.10
2023-04-04T00:30:31.740Z,61.00
2023-04-04T00:33:03.349Z,60.90
2023-04-04T00:35:35.973Z,61.00
2023-04-04T00:38:07.858Z,60.90
2023-04-04T00:40:51.614Z,61.00
2023-04-04T00:43:26.970Z,61.00
2023-04-04T00:45:59.260Z,60.90
2023-04-04T00:48:33.750Z,60.90
2023-04-04T00:51:08.250Z,60.80
2023-04-04T00:53:46.940Z,60.80
2023-04-04T00:56:27.984Z,60.70
2023-04-04T00:59:04.960Z,60.70
2023-04-04T01:01:39.706Z,60.70
2023-04-04T01:04:19.672Z,60.70
2023-04-04T01:06:54.930Z,60.70
2023-04-04T01:09:27.966Z,60.90
2023-04-04T01:12:03.326Z,60.90
2023-04-04T01:14:39.915Z,61.00
2023-04-04T01:17:19.328Z,61.00
2023-04-04T01:20:06.134Z,61.10
2023-04-04T01:22:51.122Z,61.00
2023-04-04T01:25:37.173Z,60.90
2023-04-04T01:28:15.943Z,60.90
2023-04-04T01:30:50.059Z,60.90
2023-04-04T01:33:34.603Z,61.00
2023-04-04T01:36:17.092Z,60.90
2023-04-04T01:39:00.633Z,60.90
2023-04-04T01:41:36.452Z,60.90
2023-04-04T01:44:18.736Z,60.80
2023-04-04T01:46:55.160Z,60.80
2023-04-04T01:49:27.069Z,60.80
2023-04-04T01:52:06.065Z,60.80
2023-04-04T01:54:44.376Z,60.80
2023-04-04T01:57:24.256Z,60.80
2023-04-04T01:59:59.154Z,60.80
2023-04-04T02:02:31.431Z,60.80
2023-04-04T02:05:07.037Z,60.70
2023-04-04T02:07:44.355Z,60.70
2023-04-04T02:10:27.756Z,60.70
2023-04-04T02:13:04.827Z,60.70
2023-04-04T02:15:41.235Z,60.70
2023-04-04T02:18:12.972Z,60.70
2023-04-04T02:20:43.698Z,60.70
2023-04-04T02:23:16.715Z,60.60
2023-04-04T02:25:55.562Z,60.60
2023-04-04T02:28:35.970Z,60.50
2023-04-04T02:31:07.120Z,60.60
2023-04-04T02:33:37.917Z,60.50
2023-04-04T02:36:21.347Z,60.50
2023-04-04T02:38:55.635Z,60.50
2023-04-04T02:41:35.478Z,60.50
2023-04-04T02:44:16.853Z,60.50
2023-04-04T02:46:52.084Z,60.60
2023-04-04T02:49:29.927Z,60.50
2023-04-04T02:52:02.151Z,60.60
2023-04-04T02:54:44.395Z,60.50
2023-04-04T02:57:18.784Z,60.50
2023-04-04T02:59:53.623Z,60.70
2023-04-04T03:02:30.572Z,60.70
2023-04-04T03:05:05.315Z,60.70
2023-04-04T03:07:39.139Z,60.70
2023-04-04T03:10:11.558Z,60.70
2023-04-04T03:12:43.490Z,60.70
2023-04-04T03:15:26.629Z,60.80
2023-04-04T03:17:58.880Z,60.80
2023-04-04T03:20:35.840Z,60.80
2023-04-04T03:23:09.907Z,60.70
2023-04-04T03:25:51.073Z,60.80
2023-04-04T03:28:32.015Z,60.80
2023-04-04T03:31:15.433Z,60.80
2023-04-04T03:33:59.545Z,60.80
2023-04-04T03:36:29.229Z,60.80
2023-04-04T03:39:06.871Z,60.80
2023-04-04T03:41:39.474Z,60.80
2023-04-04T03:44:16.635Z,60.90
2023-04-04T03:46:59.340Z,60.90
2023-04-04T03:49:35.740Z,61.00
2023-04-04T03:52:04.643Z,61.00
2023-04-04T03:54:42.852Z,61.00
2023-04-04T03:57:13.354Z,61.00
2023-04-04T03:59:47.400Z,61.20
2023-04-04T04:02:25.207Z,61.20
2023-04-04T04:04:55.948Z,61.20
2023-04-04T04:07:30.065Z,61.30
2023-04-04T04:10:06.352Z,61.30
2023-04-04T04:12:41.213Z,61.40
2023-04-04T04:15:23.271Z,61.40
2023-04-04T04:18:15.738Z,61.40
2023-04-04T04:20:55.494Z,61.50
2023-04-04T04:23:27.242Z,61.40
2023-04-04T04:25:58.024Z,61.50
2023-04-04T04:28:39.072Z,61.50
2023-04-04T04:31:21.279Z,61.50
2023-04-04T04:33:59.874Z,61.60
2023-04-04T04:36:42.332Z,61.70
2023-04-04T04:39:41.677Z,61.70
2023-04-04T04:42:51.872Z,61.80
2023-04-04T04:45:29.662Z,61.80
2023-04-04T04:48:17.328Z,61.80
2023-04-04T04:51:05.081Z,61.80
2023-04-04T04:53:48.934Z,61.80
2023-04-04T04:56:28.937Z,61.80
2023-04-04T04:59:11.727Z,61.80
2023-04-04T05:01:48.185Z,61.80
2023-04-04T05:04:23.495Z,61.70
2023-04-04T05:07:24.276Z,61.80
2023-04-04T05:09:55.858Z,61.90
2023-04-04T05:12:33.285Z,61.90
2023-04-04T05:15:08.156Z,62.00
2023-04-04T05:17:53.495Z,62.00
2023-04-04T05:20:26.007Z,62.00
2023-04-04T05:23:08.221Z,62.00
2023-04-04T05:25:45.399Z,62.30
2023-04-04T05:28:19.254Z,62.00
2023-04-04T05:30:54.314Z,62.00
2023-04-04T05:33:33.080Z,62.00
2023-04-04T05:36:32.489Z,62.10
2023-04-04T05:39:30.817Z,62.30
2023-04-04T05:42:16.210Z,62.40
2023-04-04T05:44:55.271Z,62.40
2023-04-04T05:47:27.175Z,62.40
2023-04-04T05:50:01.480Z,62.50
2023-04-04T05:52:36.174Z,62.50
2023-04-04T05:55:16.803Z,62.60
2023-04-04T05:57:56.465Z,62.70
2023-04-04T06:00:35.080Z,62.70
2023-04-04T06:03:14.881Z,62.80
2023-04-04T06:05:58.733Z,62.80
2023-04-04T06:08:43.181Z,63.00
2023-04-04T06:11:39.054Z,63.00
2023-04-04T06:14:18.794Z,62.80
2023-04-04T06:16:53.289Z,62.70
2023-04-04T06:19:33.105Z,62.70
2023-04-04T06:22:06.980Z,62.70
2023-04-04T06:24:52.815Z,62.80
2023-04-04T06:27:40.649Z,62.80
2023-04-04T06:30:18.456Z,62.80
2023-04-04T06:32:57.912Z,62.90
2023-04-04T06:35:33.514Z,62.90
2023-04-04T06:38:14.714Z,62.80
2023-04-04T06:40:44.263Z,62.70
2023-04-04T06:43:22.183Z,62.70
2023-04-04T06:45:55.156Z,62.60
2023-04-04T06:48:27.209Z,62.50
2023-04-04T06:50:59.124Z,62.30
2023-04-04T06:53:32.217Z,62.30
2023-04-04T06:56:05.239Z,62.30
2023-04-04T06:58:51.067Z,62.20
2023-04-04T07:01:25.915Z,62.10
2023-04-04T07:04:00.757Z,62.10
2023-04-04T07:06:31.216Z,62.00
2023-04-04T07:09:21.988Z,62.10
2023-04-04T07:12:08.357Z,62.10
2023-04-04T07:14:53.112Z,61.80
2023-04-04T07:17:25.485Z,61.80
2023-04-04T07:19:56.938Z,61.80
2023-04-04T07:22:36.939Z,61.80
2023-04-04T07:25:14.419Z,61.70
2023-04-04T07:27:50.441Z,61.60
2023-04-04T07:30:36.420Z,61.50
2023-04-04T07:33:08.282Z,61.40
2023-04-04T07:35:45.656Z,61.30
2023-04-04T07:38:25.370Z,61.00
2023-04-04T07:41:00.676Z,61.00
2023-04-04T07:43:35.147Z,60.80
2023-04-04T07:46:23.658Z,60.80
2023-04-04T07:48:54.205Z,60.60
2023-04-04T07:51:30.239Z,60.60
2023-04-04T07:54:02.359Z,60.30
2023-04-04T07:56:40.525Z,60.20
2023-04-04T07:59:11.124Z,60.10
2023-04-04T08:01:57.731Z,60.20
2023-04-04T08:04:27.377Z,59.80
2023-04-04T08:07:08.593Z,59.70
2023-04-04T08:09:45.885Z,59.80
2023-04-04T08:12:25.828Z,59.80
2023-04-04T08:14:56.309Z,59.70
2023-04-04T08:17:38.644Z,59.70
2023-04-04T08:22:56.491Z,59.40
2023-04-04T08:25:37.158Z,59.40
2023-04-04T08:28:13.039Z,59.10
2023-04-04T08:30:45.223Z,58.90
2023-04-04T08:33:16.376Z,59.00
2023-04-04T08:35:54.645Z,58.70
2023-04-04T08:38:33.765Z,58.50
2023-04-04T08:41:05.537Z,58.40
2023-04-04T08:43:43.952Z,58.40
2023-04-04T08:46:29.364Z,58.50
2023-04-04T08:49:05.185Z,58.20
2023-04-04T08:51:39.747Z,58.30
2023-04-04T08:54:24.878Z,58.20
2023-04-04T08:57:06.962Z,57.80
2023-04-04T08:59:45.489Z,57.60
2023-04-04T09:05:27.738Z,57.60
2023-04-04T09:08:12.376Z,57.00
2023-04-04T09:10:47.430Z,57.10
2023-04-04T09:13:20.091Z,56.90
2023-04-04T09:15:57.114Z,56.50
2023-04-04T09:18:27.401Z,56.70
2023-04-04T09:21:29.344Z,56.50
2023-04-04T09:24:08.567Z,56.60
2023-04-04T09:26:55.304Z,56.50
2023-04-04T09:29:38.653Z,56.50
2023-04-04T09:32:11.983Z,56.40
2023-04-04T09:34:48.017Z,56.30
2023-04-04T09:37:28.855Z,56.20
2023-04-04T09:40:03.305Z,55.90
2023-04-04T09:42:34.648Z,55.90
2023-04-04T09:45:17.134Z,55.80
2023-04-04T09:48:05.039Z,55.60
2023-04-04T09:50:39.761Z,55.80
2023-04-04T09:53:25.644Z,55.60
2023-04-04T09:55:56.075Z,55.00
2023-04-04T09:58:34.221Z,55.40
2023-04-04T10:01:17.109Z,55.90
2023-04-04T10:03:58.780Z,55.90
2023-04-04T10:06:32.931Z,55.50
2023-04-04T10:09:18.855Z,55.40
2023-04-04T10:11:47.326Z,55.30
2023-04-04T10:14:23.078Z,55.40
2023-04-04T10:17:03.705Z,55.30
2023-04-04T10:19:35.795Z,55.20
2023-04-04T10:22:08.241Z,54.90
2023-04-04T10:24:43.117Z,55.40
2023-04-04T10:27:13.797Z,55.50
2023-04-04T10:29:47.236Z,55.20
2023-04-04T10:32:32.552Z,55.20
2023-04-04T10:35:09.026Z,55.00
2023-04-04T10:37:55.384Z,55.10
2023-04-04T10:40:33.218Z,55.20
2023-04-04T10:43:07.564Z,55.30
2023-04-04T10:45:44.942Z,55.30
2023-04-04T10:48:18.116Z,55.00
2023-04-04T10:50:50.936Z,54.70
2023-04-04T10:53:26.815Z,54.80
2023-04-04T10:56:01.343Z,54.70
2023-04-04T10:58:41.071Z,54.50
2023-04-04T11:01:20.431Z,54.40
2023-04-04T11:04:21.670Z,54.40
2023-04-04T11:07:26.363Z,54.40
2023-04-04T11:10:02.521Z,54.40
2023-04-04T11:12:47.303Z,54.20
2023-04-04T11:15:24.571Z,54.20
2023-04-04T11:18:27.055Z,54.30
2023-04-04T11:21:16.037Z,54.00
2023-04-04T11:24:32.614Z,54.10
2023-04-04T11:27:03.229Z,54.40
2023-04-04T11:29:54.398Z,54.40
2023-04-04T11:33:05.944Z,54.20
2023-04-04T11:35:41.024Z,54.20
2023-04-04T11:38:17.182Z,54.00
2023-04-04T11:40:59.780Z,53.80
2023-04-04T11:43:37.662Z,54.00
2023-04-04T11:46:30.126Z,54.00
2023-04-04T11:49:04.164Z,53.80
2023-04-04T11:51:42.794Z,53.70
2023-04-04T11:54:22.553Z,53.80
2023-04-04T11:57:02.790Z,53.90
2023-04-04T11:59:39.128Z,53.80
2023-04-04T12:02:15.881Z,53.70
2023-04-04T12:04:49.440Z,53.70
2023-04-04T12:07:26.740Z,53.70
2023-04-04T12:10:08.188Z,53.50
2023-04-04T12:12:45.334Z,53.60
2023-04-04T12:15:21.191Z,53.60
2023-04-04T12:17:59.213Z,53.50
2023-04-04T12:20:30.932Z,53.50
2023-04-04T12:23:06.022Z,53.40
2023-04-04T12:25:47.054Z,53.30
2023-04-04T12:28:28.566Z,53.40
2023-04-04T12:30:59.359Z,53.20
2023-04-04T12:33:38.237Z,53.10
2023-04-04T12:36:12.835Z,53.10
2023-04-04T12:39:04.366Z,52.90
2023-04-04T12:41:37.570Z,52.90
2023-04-04T12:44:08.978Z,52.60
2023-04-04T12:46:41.719Z,52.50
2023-04-04T12:49:17.693Z,52.40
2023-04-04T12:51:52.826Z,52.60
2023-04-04T12:54:31.648Z,52.50
2023-04-04T12:57:09.130Z,52.30
2023-04-04T12:59:48.214Z,52.40
2023-04-04T13:02:21.442Z,52.40
2023-04-04T13:05:05.730Z,52.50
2023-04-04T13:07:46.000Z,52.50
2023-04-04T13:10:24.717Z,52.50
2023-04-04T13:13:06.670Z,52.40
2023-04-04T13:15:58.030Z,52.60
2023-04-04T13:18:41.573Z,52.60
2023-04-04T13:21:20.465Z,52.50
2023-04-04T13:24:00.039Z,52.40
2023-04-04T13:26:30.412Z,52.20
2023-04-04T13:29:03.504Z,52.30
2023-04-04T13:31:34.654Z,52.00
2023-04-04T13:34:06.998Z,52.20
2023-04-04T13:36:48.747Z,52.20
2023-04-04T13:39:27.725Z,52.50
2023-04-04T13:42:00.451Z,52.60
2023-04-04T13:44:34.038Z,52.40
2023-04-04T13:47:09.528Z,52.30
2023-04-04T13:49:45.343Z,52.10
2023-04-04T13:52:16.877Z,52.30
2023-04-04T13:54:48.113Z,52.20
2023-04-04T13:57:30.620Z,52.40
2023-04-04T14:00:01.378Z,52.30
2023-04-04T14:02:56.586Z,52.30
2023-04-04T14:05:31.793Z,52.40
2023-04-04T14:08:05.772Z,52.30
2023-04-04T14:10:39.489Z,52.30
2023-04-04T14:13:10.168Z,52.20
2023-04-04T14:15:44.500Z,51.90
2023-04-04T14:18:16.248Z,52.20
2023-04-04T14:20:48.417Z,52.30
2023-04-04T14:23:26.384Z,52.40
2023-04-04T14:25:58.298Z,52.40
2023-04-04T14:28:29.595Z,52.50
2023-04-04T14:30:59.811Z,52.50
2023-04-04T14:33:39.172Z,52.50
2023-04-04T14:36:13.222Z,52.60
2023-04-04T14:38:50.710Z,52.50
2023-04-04T14:41:28.472Z,52.40
2023-04-04T14:44:02.256Z,52.50
2023-04-04T14:46:39.096Z,52.60
2023-04-04T14:49:18.858Z,52.60
2023-04-04T14:51:54.784Z,52.60
2023-04-04T14:54:30.471Z,52.60
2023-04-04T14:57:06.259Z,52.60
2023-04-04T14:59:42.451Z,52.70
2023-04-04T15:02:19.494Z,52.70
2023-04-04T15:04:52.647Z,52.60
2023-04-04T15:07:29.253Z,52.50
2023-04-04T15:10:01.388Z,52.40
2023-04-04T15:12:30.305Z,52.40
2023-04-04T15:15:11.126Z,52.40
2023-04-04T15:17:42.964Z,52.30
2023-04-04T15:20:23.184Z,52.40
2023-04-04T15:22:57.309Z,52.50
2023-04-04T15:25:34.975Z,52.50
2023-04-04T15:28:07.061Z,52.40
2023-04-04T15:30:39.922Z,52.20
2023-04-04T15:33:19.547Z,52.20
2023-04-04T15:35:52.893Z,52.20
2023-04-04T15:38:23.746Z,52.40
2023-04-04T15:41:01.189Z,52.40
2023-04-04T15:43:34.169Z,52.40
2023-04-04T15:46:14.448Z,52.50
2023-04-04T15:48:48.680Z,52.40
2023-04-04T15:51:25.563Z,52.30
2023-04-04T15:54:03.520Z,52.30
2023-04-04T15:56:37.949Z,52.30
2023-04-04T15:59:19.033Z,52.20
2023-04-04T16:01:59.329Z,52.20
2023-04-04T16:04:30.095Z,52.30
2023-04-04T16:07:11.163Z,52.20
2023-04-04T16:09:44.123Z,52.20
2023-04-04T16:12:16.870Z,52.20
2023-04-04T16:15:01.837Z,52.30
2023-04-04T16:17:36.012Z,52.30
2023-04-04T16:20:13.657Z,52.40
2023-04-04T16:22:48.463Z,52.40
2023-04-04T16:25:21.337Z,52.40
2023-04-04T16:28:00.830Z,52.40
2023-04-04T16:30:40.315Z,52.50
2023-04-04T16:33:17.949Z,52.60
2023-04-04T16:35:53.365Z,52.80
2023-04-04T16:38:32.837Z,52.90
2023-04-04T16:41:06.148Z,52.90
2023-04-04T16:43:48.285Z,52.80
2023-04-04T16:46:28.929Z,52.90
2023-04-04T16:49:02.440Z,52.90
2023-04-04T16:51:35.996Z,53.00
2023-04-04T16:54:17.956Z,53.10
2023-04-04T16:56:51.798Z,53.10
2023-04-04T17:02:16.097Z,53.00
2023-04-04T17:04:49.622Z,52.90
2023-04-04T17:07:35.268Z,52.90
2023-04-04T17:10:10.736Z,52.90
2023-04-04T17:12:46.145Z,52.90
2023-04-04T17:15:21.707Z,53.00
2023-04-04T17:17:54.004Z,53.10
2023-04-04T17:20:39.590Z,53.10
2023-04-04T17:23:11.231Z,53.10
2023-04-04T17:25:42.270Z,53.10
2023-04-04T17:28:18.358Z,53.10
2023-04-04T17:31:03.380Z,53.00
2023-04-04T17:33:37.460Z,53.00
2023-04-04T17:36:08.132Z,53.00
2023-04-04T17:38:39.565Z,53.00
2023-04-04T17:41:09.304Z,53.00
2023-04-04T17:43:38.603Z,53.10
2023-04-04T17:46:18.993Z,53.10
2023-04-04T17:48:56.579Z,53.20
2023-04-04T17:51:36.335Z,53.30
2023-04-04T17:54:13.528Z,53.30
2023-04-04T17:56:50.412Z,53.40
2023-04-04T17:59:21.870Z,53.50
2023-04-04T18:01:57.461Z,53.60
2023-04-04T18:04:36.893Z,53.80
2023-04-04T18:07:20.944Z,53.80
2023-04-04T18:09:52.021Z,53.80
2023-04-04T18:12:22.240Z,53.60
2023-04-04T18:15:01.348Z,53.70
2023-04-04T18:17:40.220Z,53.60
2023-04-04T18:20:34.113Z,53.80
2023-04-04T18:23:10.777Z,53.90
2023-04-04T18:25:47.221Z,54.00
2023-04-04T18:28:26.705Z,54.20
2023-04-04T18:31:02.041Z,54.30
2023-04-04T18:33:44.155Z,54.40
2023-04-04T18:36:17.154Z,54.60
2023-04-04T18:38:54.994Z,54.70
2023-04-04T18:41:25.167Z,54.90
2023-04-04T18:43:58.977Z,55.00
2023-04-04T18:46:29.171Z,55.10
2023-04-04T18:49:06.237Z,55.20
2023-04-04T18:51:45.457Z,55.40
2023-04-04T18:54:15.597Z,55.40
2023-04-04T18:56:48.416Z,55.70
2023-04-04T18:59:22.687Z,55.80
2023-04-04T19:01:59.026Z,55.80
2023-04-04T19:04:39.220Z,55.90
2023-04-04T19:07:12.824Z,56.10
2023-04-04T19:09:44.046Z,55.90
2023-04-04T19:12:14.724Z,56.20
2023-04-04T19:14:45.750Z,56.30
2023-04-04T19:17:20.028Z,56.50
2023-04-04T19:19:55.424Z,56.60
2023-04-04T19:22:31.625Z,56.70
2023-04-04T19:25:05.065Z,56.80
2023-04-04T19:27:40.037Z,56.90
2023-04-04T19:30:39.816Z,56.90
2023-04-04T19:33:11.154Z,57.10
2023-04-04T19:35:59.468Z,57.20
2023-04-04T19:38:38.669Z,57.40
2023-04-04T19:41:19.763Z,57.40
2023-04-04T19:43:53.972Z,57.60
2023-04-04T19:46:30.731Z,57.60
2023-04-04T19:49:10.859Z,57.70
2023-04-04T19:52:01.896Z,57.80
2023-04-04T19:54:41.842Z,58.00
2023-04-04T19:57:29.404Z,58.00
2023-04-04T20:03:00.537Z,58.30
2023-04-04T20:06:06.531Z,58.50
2023-04-04T20:08:59.308Z,58.50
2023-04-04T20:11:35.630Z,58.60
2023-04-04T20:14:08.795Z,58.80
2023-04-04T20:16:47.693Z,58.90
2023-04-04T20:19:22.973Z,59.10
2023-04-04T20:21:59.960Z,59.10
2023-04-04T20:24:44.998Z,59.30
2023-04-04T20:27:30.520Z,59.40
2023-04-04T20:30:05.505Z,59.60
2023-04-04T20:32:43.411Z,59.60
2023-04-04T20:35:36.418Z,59.90
2023-04-04T20:38:14.283Z,59.90
2023-04-04T20:43:36.223Z,60.10
2023-04-04T20:46:15.863Z,60.10
2023-04-04T20:49:00.427Z,60.20
2023-04-04T20:51:36.976Z,60.20
2023-04-04T20:54:10.593Z,60.30
2023-04-04T20:57:00.045Z,60.50
2023-04-04T20:59:56.898Z,60.60
2023-04-04T21:02:31.588Z,60.70
2023-04-04T21:05:18.379Z,60.70
2023-04-04T21:08:01.087Z,60.70
2023-04-04T21:11:03.352Z,60.80
2023-04-04T21:13:39.711Z,61.00
2023-04-04T21:16:18.166Z,60.90
2023-04-04T21:18:56.612Z,61.00
2023-04-04T21:21:28.694Z,61.10
2023-04-04T21:24:03.387Z,61.20
2023-04-04T21:26:41.181Z,61.40
2023-04-04T21:29:27.870Z,61.40
2023-04-04T21:32:01.436Z,61.40
2023-04-04T21:34:42.025Z,61.40
2023-04-04T21:37:17.558Z,61.60
2023-04-04T21:39:54.221Z,61.70
2023-04-04T21:42:26.453Z,61.70
2023-04-04T21:45:10.609Z,61.90
2023-04-04T21:47:44.796Z,62.00
2023-04-04T21:50:30.063Z,62.00
2023-04-04T21:53:01.444Z,62.10
2023-04-04T21:55:31.561Z,62.20
2023-04-04T21:58:10.043Z,62.20
2023-04-04T22:00:48.436Z,62.30
2023-04-04T22:03:24.298Z,62.30
2023-04-04T22:06:06.232Z,62.40
2023-04-04T22:08:37.434Z,62.30
2023-04-04T22:11:16.495Z,62.40
2023-04-04T22:13:50.638Z,62.50
2023-04-04T22:16:29.433Z,62.50
2023-04-04T22:19:08.331Z,62.60
2023-04-04T22:21:55.078Z,62.60
2023-04-04T22:24:23.182Z,62.70
2023-04-04T22:27:01.293Z,62.70
2023-04-04T22:29:37.045Z,62.80
2023-04-04T22:32:15.714Z,62.80
2023-04-04T22:34:46.215Z,62.90
2023-04-04T22:37:27.409Z,63.10
2023-04-04T22:40:13.757Z,63.10
2023-04-04T22:42:53.662Z,63.10
2023-04-04T22:45:34.150Z,63.20
2023-04-04T22:48:13.498Z,63.30
2023-04-04T22:50:47.134Z,63.30
2023-04-04T22:53:22.952Z,63.40
2023-04-04T22:55:55.801Z,63.40
2023-04-04T22:58:26.317Z,63.40
2023-04-04T23:01:00.121Z,63.50
2023-04-04T23:03:35.235Z,63.40
2023-04-04T23:06:09.729Z,63.40
2023-04-04T23:08:47.658Z,63.50
2023-04-04T23:11:18.145Z,63.50
2023-04-04T23:13:57.327Z,63.50
2023-04-04T23:16:28.685Z,63.50
2023-04-04T23:19:01.065Z,63.50
2023-04-04T23:21:31.364Z,63.70
2023-04-04T23:24:05.396Z,63.70
2023-04-04T23:26:40.107Z,63.60
2023-04-04T23:29:18.814Z,63.50
2023-04-04T23:31:50.391Z,63.60
2023-04-04T23:34:22.377Z,63.60
2023-04-04T23:36:57.481Z,63.70
2023-04-04T23:39:36.852Z,63.70
2023-04-04T23:42:14.223Z,63.90
2023-04-04T23:44:55.193Z,64.00
2023-04-04T23:47:29.540Z,64.00
2023-04-04T23:50:10.774Z,63.90
2023-04-04T23:52:53.015Z,63.90
2023-04-04T23:55:31.115Z,64.00
2023-04-04T23:58:08.591Z,64.00
